Time;durP1;ratioP1;P1;durP2;ratioP2;P2;SDS_P1;SDS_P2;PMS_P1;PMS_P2;Temp;Humidity;BMP_temperature;BMP_pressure;BME280_temperature;BME280_humidity;BME280_pressure;Samples;Min_cycle;Max_cycle;Signal;HPM_P1;HPM_P2
2023/07/13 00:00:27;;;;;;;1.50;0.85;;;;;;;;;;4968809;28;20070;-76
2023/07/13 00:02:53;;;;;;;2.00;1.23;;;;;;;;;;4987530;28;20111;-77
2023/07/13 00:05:20;;;;;;;1.45;0.88;;;;;;;;;;4997942;28;20038;-76
2023/07/13 00:07:46;;;;;;;1.13;0.75;;;;;;;;;;5001528;28;20119;-77
2023/07/13 00:10:12;;;;;;;2.25;0.70;;;;;;;;;;5006020;28;20682;-76
2023/07/13 00:12:38;;;;;;;0.82;0.70;;;;;;;;;;4962437;28;20041;-76
2023/07/13 00:15:13;;;;;;;1.92;0.98;;;;;;;;;;4992960;28;20035;-76
2023/07/13 00:17:38;;;;;;;0.93;0.68;;;;;;;;;;4988979;28;20030;-76
2023/07/13 00:20:05;;;;;;;2.10;1.40;;;;;;;;;;4997066;28;20034;-76
2023/07/13 00:22:31;;;;;;;1.08;0.60;;;;;;;;;;4979354;28;20053;-76
2023/07/13 00:24:56;;;;;;;1.50;0.82;;;;;;;;;;4986857;28;20097;-77
2023/07/13 00:27:23;;;;;;;1.25;0.95;;;;;;;;;;4999400;28;20069;-77
2023/07/13 00:29:48;;;;;;;2.60;1.00;;;;;;;;;;4997796;28;20038;-77
2023/07/13 00:32:14;;;;;;;0.82;0.70;;;;;;;;;;4991531;28;20041;-77
2023/07/13 00:34:40;;;;;;;1.58;0.90;;;;;;;;;;4975489;28;20085;-77
2023/07/13 00:37:06;;;;;;;1.17;0.70;;;;;;;;;;4998927;28;20041;-77
2023/07/13 00:39:33;;;;;;;2.00;1.00;;;;;;;;;;4962644;28;20046;-77
2023/07/13 00:41:59;;;;;;;1.13;1.02;;;;;;;;;;4985240;28;20030;-78
2023/07/13 00:44:25;;;;;;;1.00;0.80;;;;;;;;;;4985476;28;20505;-76
2023/07/13 00:46:50;;;;;;;1.10;0.80;;;;;;;;;;4994653;28;20045;-77
2023/07/13 00:49:20;;;;;;;1.42;0.68;;;;;;;;;;4997778;28;20033;-77
2023/07/13 00:51:51;;;;;;;0.70;0.70;;;;;;;;;;4987335;28;20038;-76
2023/07/13 00:54:27;;;;;;;3.38;1.58;;;;;;;;;;4997036;28;20034;-77
2023/07/13 00:56:56;;;;;;;2.55;1.45;;;;;;;;;;4993555;28;20514;-77
2023/07/13 00:59:22;;;;;;;2.03;0.70;;;;;;;;;;4996184;28;20293;-77
2023/07/13 01:01:48;;;;;;;3.47;1.30;;;;;;;;;;4996581;28;20582;-76
2023/07/13 01:04:14;;;;;;;1.75;0.90;;;;;;;;;;4985573;28;20041;-76
2023/07/13 01:06:40;;;;;;;2.08;1.30;;;;;;;;;;4995329;28;20068;-76
2023/07/13 01:09:08;;;;;;;1.73;1.30;;;;;;;;;;4980510;28;20061;-77
2023/07/13 01:11:34;;;;;;;1.88;0.90;;;;;;;;;;4995936;28;20050;-77
2023/07/13 01:14:01;;;;;;;1.00;0.93;;;;;;;;;;4981533;28;20042;-77
2023/07/13 01:16:31;;;;;;;2.15;1.20;;;;;;;;;;4978222;28;20104;-77
2023/07/13 01:19:01;;;;;;;1.10;1.00;;;;;;;;;;4950775;28;20038;-77
2023/07/13 01:21:28;;;;;;;2.65;1.42;;;;;;;;;;4981250;28;20050;-77
2023/07/13 01:23:54;;;;;;;1.30;1.20;;;;;;;;;;4985568;28;20037;-77
2023/07/13 01:26:20;;;;;;;2.22;1.23;;;;;;;;;;4994054;28;20129;-77
2023/07/13 01:28:45;;;;;;;2.28;1.00;;;;;;;;;;4993573;28;20067;-77
2023/07/13 01:31:11;;;;;;;1.90;1.08;;;;;;;;;;4985414;28;20034;-76
2023/07/13 01:33:40;;;;;;;1.55;1.00;;;;;;;;;;4996009;28;20763;-76
2023/07/13 01:36:07;;;;;;;1.00;0.90;;;;;;;;;;4995590;28;20037;-77
2023/07/13 01:38:34;;;;;;;1.45;1.20;;;;;;;;;;4976789;28;20481;-77
2023/07/13 01:41:00;;;;;;;4.22;1.10;;;;;;;;;;4996127;28;20034;-77
2023/07/13 01:43:25;;;;;;;1.98;1.50;;;;;;;;;;4996022;28;20046;-77
2023/07/13 01:45:51;;;;;;;2.10;1.30;;;;;;;;;;4987641;28;20077;-78
2023/07/13 01:48:16;;;;;;;1.05;1.00;;;;;;;;;;4995381;28;20421;-77
2023/07/13 01:50:42;;;;;;;1.02;0.93;;;;;;;;;;4994413;28;20042;-77
2023/07/13 01:53:08;;;;;;;1.13;1.00;;;;;;;;;;4995511;28;20037;-76
2023/07/13 01:55:34;;;;;;;3.75;1.33;;;;;;;;;;4995330;28;20046;-77
2023/07/13 01:57:59;;;;;;;2.78;1.42;;;;;;;;;;4986169;28;20040;-76
2023/07/13 02:00:25;;;;;;;1.88;1.13;;;;;;;;;;4995522;28;20060;-77
2023/07/13 02:02:50;;;;;;;3.30;1.50;;;;;;;;;;4978855;28;20112;-76
2023/07/13 02:05:16;;;;;;;3.08;1.48;;;;;;;;;;4995973;28;20026;-76
2023/07/13 02:07:42;;;;;;;1.98;1.20;;;;;;;;;;4996003;28;20062;-77
2023/07/13 02:10:09;;;;;;;1.60;1.20;;;;;;;;;;4994217;28;20030;-76
2023/07/13 02:12:34;;;;;;;4.03;1.50;;;;;;;;;;4980999;28;20140;-76
2023/07/13 02:15:00;;;;;;;2.70;1.30;;;;;;;;;;4995118;28;20483;-76
2023/07/13 02:17:26;;;;;;;1.90;1.10;;;;;;;;;;4992113;28;20128;-76
2023/07/13 02:19:52;;;;;;;4.13;1.50;;;;;;;;;;4994708;28;20033;-77
2023/07/13 02:22:17;;;;;;;1.90;1.10;;;;;;;;;;4993745;28;20607;-77
2023/07/13 02:24:43;;;;;;;4.55;1.30;;;;;;;;;;4995279;28;20096;-77
2023/07/13 02:27:08;;;;;;;3.20;1.45;;;;;;;;;;4985917;28;20078;-77
2023/07/13 02:29:34;;;;;;;1.80;1.35;;;;;;;;;;4989999;28;20034;-76
2023/07/13 02:31:59;;;;;;;1.77;1.17;;;;;;;;;;4994151;28;20056;-76
2023/07/13 02:34:24;;;;;;;2.88;1.50;;;;;;;;;;4993521;28;20390;-76
2023/07/13 02:36:50;;;;;;;3.22;1.30;;;;;;;;;;4994783;28;20108;-76
2023/07/13 02:39:15;;;;;;;3.72;1.55;;;;;;;;;;4994600;28;20048;-77
2023/07/13 02:41:41;;;;;;;1.30;1.20;;;;;;;;;;4985547;28;20045;-77
2023/07/13 02:44:08;;;;;;;3.80;1.23;;;;;;;;;;4995148;28;20034;-77
2023/07/13 02:46:35;;;;;;;4.65;1.52;;;;;;;;;;4989249;28;20365;-77
2023/07/13 02:49:01;;;;;;;1.90;1.40;;;;;;;;;;4991592;28;20044;-76
2023/07/13 02:51:27;;;;;;;1.60;1.27;;;;;;;;;;4977189;28;20470;-75
2023/07/13 02:53:52;;;;;;;1.40;1.02;;;;;;;;;;4992588;28;20045;-76
2023/07/13 02:56:22;;;;;;;2.42;1.25;;;;;;;;;;4971101;28;20042;-76
2023/07/13 02:58:47;;;;;;;1.60;1.50;;;;;;;;;;4994726;28;20061;-75
2023/07/13 03:01:17;;;;;;;2.50;1.20;;;;;;;;;;4993745;28;20057;-75
2023/07/13 03:03:43;;;;;;;1.98;1.50;;;;;;;;;;4994530;28;20045;-76
2023/07/13 03:06:08;;;;;;;1.17;1.00;;;;;;;;;;4990442;28;20431;-76
2023/07/13 03:08:34;;;;;;;1.10;1.10;;;;;;;;;;4983791;28;20054;-76
2023/07/13 03:11:00;;;;;;;2.50;1.42;;;;;;;;;;4977065;28;20038;-74
2023/07/13 03:13:26;;;;;;;1.88;1.17;;;;;;;;;;4978273;28;20042;-76
2023/07/13 03:15:51;;;;;;;2.13;1.10;;;;;;;;;;4993089;28;20045;-76
2023/07/13 03:18:16;;;;;;;4.78;1.60;;;;;;;;;;4992449;28;20034;-75
2023/07/13 03:20:42;;;;;;;2.38;1.25;;;;;;;;;;4992983;28;20042;-75
2023/07/13 03:23:07;;;;;;;2.05;1.35;;;;;;;;;;4969044;28;20134;-76
2023/07/13 03:25:32;;;;;;;2.10;0.95;;;;;;;;;;4995439;28;20498;-77
2023/07/13 03:27:58;;;;;;;1.58;1.00;;;;;;;;;;4994118;28;20037;-77
2023/07/13 03:30:23;;;;;;;1.23;1.10;;;;;;;;;;4991644;28;20041;-76
2023/07/13 03:32:48;;;;;;;2.25;1.30;;;;;;;;;;4993336;28;20070;-76
2023/07/13 03:35:14;;;;;;;1.80;1.20;;;;;;;;;;4994161;28;20057;-76
2023/07/13 03:37:42;;;;;;;2.22;1.30;;;;;;;;;;4984150;28;20082;-76
2023/07/13 03:40:09;;;;;;;0.82;0.80;;;;;;;;;;4995726;28;20042;-76
2023/07/13 03:42:34;;;;;;;0.80;0.80;;;;;;;;;;4974831;28;20572;-76
2023/07/13 03:45:00;;;;;;;0.80;0.80;;;;;;;;;;4993219;28;20038;-76
2023/07/13 03:47:26;;;;;;;1.20;0.88;;;;;;;;;;4993766;28;20482;-75
2023/07/13 03:49:51;;;;;;;1.35;0.90;;;;;;;;;;4986013;28;20632;-76
2023/07/13 03:52:16;;;;;;;1.00;0.90;;;;;;;;;;4996311;28;20041;-76
2023/07/13 03:54:42;;;;;;;0.88;0.80;;;;;;;;;;4998213;28;20081;-76
2023/07/13 03:57:08;;;;;;;0.93;0.82;;;;;;;;;;4981300;28;20418;-77
2023/07/13 03:59:33;;;;;;;1.38;0.70;;;;;;;;;;4994878;28;20042;-76
2023/07/13 04:01:59;;;;;;;1.40;0.90;;;;;;;;;;4996501;28;20110;-76
2023/07/13 04:04:24;;;;;;;2.53;1.25;;;;;;;;;;4984242;28;20034;-76
2023/07/13 04:06:52;;;;;;;0.90;0.90;;;;;;;;;;4993457;28;20034;-76
2023/07/13 04:09:18;;;;;;;1.73;0.98;;;;;;;;;;4997259;28;20564;-75
2023/07/13 04:11:44;;;;;;;1.42;0.98;;;;;;;;;;4997277;28;20041;-76
2023/07/13 04:14:09;;;;;;;2.13;1.52;;;;;;;;;;4997104;28;20131;-75
2023/07/13 04:16:34;;;;;;;1.10;1.08;;;;;;;;;;4997182;28;20041;-76
2023/07/13 04:19:00;;;;;;;1.38;1.17;;;;;;;;;;4985848;28;20042;-76
2023/07/13 04:21:30;;;;;;;2.63;0.90;;;;;;;;;;4996723;28;20045;-76
2023/07/13 04:23:55;;;;;;;1.35;1.25;;;;;;;;;;4999090;28;20038;-76
2023/07/13 04:26:22;;;;;;;1.33;1.10;;;;;;;;;;4989982;28;20028;-76
2023/07/13 04:28:48;;;;;;;3.58;1.90;;;;;;;;;;4989983;28;20149;-75
2023/07/13 04:31:14;;;;;;;2.38;1.27;;;;;;;;;;4987325;28;20086;-77
2023/07/13 04:33:39;;;;;;;2.50;1.63;;;;;;;;;;4990022;28;20451;-76
2023/07/13 04:36:05;;;;;;;2.05;1.58;;;;;;;;;;4989376;28;20129;-76
2023/07/13 04:38:32;;;;;;;1.45;1.30;;;;;;;;;;4990827;28;20109;-78
2023/07/13 04:41:01;;;;;;;1.75;1.00;;;;;;;;;;4989666;28;20026;-77
2023/07/13 04:43:28;;;;;;;2.25;1.10;;;;;;;;;;4989513;28;20018;-77
2023/07/13 04:45:53;;;;;;;2.10;1.38;;;;;;;;;;4991587;28;20038;-77
2023/07/13 04:48:20;;;;;;;1.30;1.20;;;;;;;;;;4991525;28;20105;-77
2023/07/13 04:50:46;;;;;;;1.30;1.20;;;;;;;;;;4991204;28;20027;-78
2023/07/13 04:53:11;;;;;;;3.22;1.20;;;;;;;;;;4991377;28;20058;-77
2023/07/13 04:55:37;;;;;;;3.38;1.35;;;;;;;;;;4990382;28;20153;-77
2023/07/13 04:58:03;;;;;;;1.95;1.30;;;;;;;;;;4988164;28;20032;-78
2023/07/13 05:00:29;;;;;;;1.88;1.20;;;;;;;;;;4991070;28;20368;-78
2023/07/13 05:02:57;;;;;;;2.90;1.30;;;;;;;;;;4989700;28;20042;-77
2023/07/13 05:05:22;;;;;;;1.48;1.42;;;;;;;;;;4986992;28;20049;-77
2023/07/13 05:07:48;;;;;;;2.22;1.13;;;;;;;;;;4986968;28;20432;-77
2023/07/13 05:10:13;;;;;;;1.17;1.08;;;;;;;;;;4987433;28;20034;-77
2023/07/13 05:12:39;;;;;;;4.43;1.90;;;;;;;;;;4988244;28;20022;-78
2023/07/13 05:15:05;;;;;;;2.58;1.25;;;;;;;;;;4988299;28;20262;-78
2023/07/13 05:17:30;;;;;;;2.88;1.30;;;;;;;;;;4986285;28;20083;-78
2023/07/13 05:19:56;;;;;;;2.65;1.40;;;;;;;;;;4986119;28;20030;-78
2023/07/13 05:22:21;;;;;;;1.33;1.13;;;;;;;;;;4988855;28;20041;-78
2023/07/13 05:24:47;;;;;;;2.75;1.30;;;;;;;;;;4989873;28;20030;-78
2023/07/13 05:27:12;;;;;;;2.63;1.60;;;;;;;;;;4987797;28;20026;-78
2023/07/13 05:29:38;;;;;;;2.60;1.88;;;;;;;;;;4988864;28;20088;-78
2023/07/13 05:32:04;;;;;;;3.35;1.73;;;;;;;;;;4987170;28;20110;-79
2023/07/13 05:34:29;;;;;;;1.20;1.10;;;;;;;;;;4988885;28;20104;-77
2023/07/13 05:36:55;;;;;;;1.95;1.20;;;;;;;;;;4986785;28;20037;-77
2023/07/13 05:39:20;;;;;;;2.25;1.13;;;;;;;;;;4987522;28;20018;-77
2023/07/13 05:41:46;;;;;;;1.67;1.10;;;;;;;;;;4988342;28;20400;-78
2023/07/13 05:44:11;;;;;;;2.35;1.35;;;;;;;;;;4984434;28;20036;-79
2023/07/13 05:46:36;;;;;;;1.50;1.15;;;;;;;;;;4986998;28;20030;-79
2023/07/13 05:49:03;;;;;;;1.58;1.20;;;;;;;;;;4988086;28;20035;-78
2023/07/13 05:51:28;;;;;;;1.05;1.00;;;;;;;;;;4991023;28;20062;-78
2023/07/13 05:53:54;;;;;;;3.13;1.35;;;;;;;;;;4987599;28;20060;-78
2023/07/13 05:56:19;;;;;;;2.97;1.42;;;;;;;;;;4988711;28;20042;-77
2023/07/13 05:58:44;;;;;;;2.58;1.48;;;;;;;;;;4988635;28;20097;-78
2023/07/13 06:01:12;;;;;;;2.53;1.40;;;;;;;;;;4987569;28;20701;-77
2023/07/13 06:03:38;;;;;;;2.05;1.30;;;;;;;;;;4986967;28;20444;-79
2023/07/13 06:06:04;;;;;;;2.20;1.42;;;;;;;;;;4989435;28;20089;-78
2023/07/13 06:08:30;;;;;;;4.13;1.80;;;;;;;;;;4988482;28;20022;-78
2023/07/13 06:11:01;;;;;;;1.45;1.20;;;;;;;;;;4988829;28;20439;-79
2023/07/13 06:13:27;;;;;;;2.30;1.48;;;;;;;;;;4986965;28;20545;-78
2023/07/13 06:15:52;;;;;;;3.00;1.35;;;;;;;;;;4988832;28;20035;-78
2023/07/13 06:18:18;;;;;;;3.75;1.35;;;;;;;;;;4988789;28;20459;-78
2023/07/13 06:20:43;;;;;;;1.17;0.90;;;;;;;;;;4990234;28;20108;-78
2023/07/13 06:23:08;;;;;;;0.85;0.85;;;;;;;;;;4987856;28;20045;-79
2023/07/13 06:25:34;;;;;;;3.15;1.52;;;;;;;;;;4988325;28;20301;-78
2023/07/13 06:28:00;;;;;;;1.45;0.73;;;;;;;;;;4987758;28;20081;-79
2023/07/13 06:30:26;;;;;;;2.20;1.10;;;;;;;;;;4989816;28;20080;-78
2023/07/13 06:32:51;;;;;;;3.22;1.15;;;;;;;;;;4987785;28;20026;-78
2023/07/13 06:35:16;;;;;;;2.80;1.20;;;;;;;;;;4989983;28;20034;-78
2023/07/13 06:37:42;;;;;;;1.55;0.90;;;;;;;;;;4990424;28;20014;-78
2023/07/13 06:40:08;;;;;;;3.80;1.20;;;;;;;;;;4990105;28;20029;-77
2023/07/13 06:42:33;;;;;;;1.63;0.80;;;;;;;;;;4972045;28;20026;-77
2023/07/13 06:44:58;;;;;;;4.60;1.30;;;;;;;;;;4988904;28;20423;-78
2023/07/13 06:47:24;;;;;;;5.25;1.25;;;;;;;;;;4988799;28;20038;-78
2023/07/13 06:49:49;;;;;;;3.00;1.30;;;;;;;;;;4989014;28;20034;-78
2023/07/13 06:52:14;;;;;;;2.17;0.90;;;;;;;;;;4989259;28;20027;-78
2023/07/13 06:54:40;;;;;;;1.95;1.02;;;;;;;;;;4989803;28;20034;-79
2023/07/13 06:57:05;;;;;;;2.22;1.30;;;;;;;;;;4989008;28;20340;-79
2023/07/13 06:59:32;;;;;;;1.23;0.80;;;;;;;;;;4989068;28;20057;-77
2023/07/13 07:01:57;;;;;;;2.88;0.98;;;;;;;;;;4989333;28;20042;-77
2023/07/13 07:04:22;;;;;;;1.77;0.85;;;;;;;;;;4989764;28;20037;-77
2023/07/13 07:06:48;;;;;;;4.63;1.20;;;;;;;;;;4988988;28;20444;-79
2023/07/13 07:09:13;;;;;;;3.42;1.23;;;;;;;;;;4988210;28;20042;-78
2023/07/13 07:11:38;;;;;;;2.60;1.00;;;;;;;;;;4986621;28;20022;-77
2023/07/13 07:14:04;;;;;;;1.90;0.98;;;;;;;;;;4987683;28;20030;-78
2023/07/13 07:16:29;;;;;;;3.65;1.27;;;;;;;;;;4988356;28;20026;-78
2023/07/13 07:18:55;;;;;;;1.45;0.80;;;;;;;;;;4987101;28;20033;-78
2023/07/13 07:21:22;;;;;;;2.58;1.30;;;;;;;;;;4986765;28;20026;-77
2023/07/13 07:23:48;;;;;;;0.95;0.75;;;;;;;;;;4987638;28;20487;-78
2023/07/13 07:26:14;;;;;;;1.70;0.85;;;;;;;;;;4985502;28;20062;-77
2023/07/13 07:28:39;;;;;;;3.97;1.10;;;;;;;;;;4991077;28;20102;-78
2023/07/13 07:31:05;;;;;;;4.70;1.40;;;;;;;;;;4988415;28;20029;-78
2023/07/13 07:33:30;;;;;;;2.25;1.13;;;;;;;;;;4991865;28;20027;-78
2023/07/13 07:35:56;;;;;;;1.25;1.00;;;;;;;;;;4988783;28;20023;-78
2023/07/13 07:38:21;;;;;;;1.85;1.00;;;;;;;;;;4991050;28;20545;-78
2023/07/13 07:40:46;;;;;;;2.53;1.08;;;;;;;;;;4989289;28;20037;-78
2023/07/13 07:43:13;;;;;;;1.98;1.20;;;;;;;;;;4990697;28;20479;-78
2023/07/13 07:45:39;;;;;;;1.92;0.80;;;;;;;;;;4989978;28;20026;-77
2023/07/13 07:48:05;;;;;;;1.52;0.82;;;;;;;;;;4990603;28;20018;-78
2023/07/13 07:50:31;;;;;;;1.10;0.80;;;;;;;;;;4990050;28;20022;-78
2023/07/13 07:52:57;;;;;;;1.65;0.85;;;;;;;;;;4992993;28;20039;-77
2023/07/13 07:55:25;;;;;;;1.98;1.10;;;;;;;;;;4989596;28;20065;-78
2023/07/13 07:57:50;;;;;;;1.48;0.90;;;;;;;;;;4991426;28;20026;-78
2023/07/13 08:00:16;;;;;;;3.15;1.02;;;;;;;;;;4990523;28;20696;-78
2023/07/13 08:02:43;;;;;;;2.70;0.77;;;;;;;;;;4989278;28;20014;-78
2023/07/13 08:05:08;;;;;;;1.85;0.85;;;;;;;;;;4989872;28;20439;-78
2023/07/13 08:07:37;;;;;;;2.35;1.05;;;;;;;;;;4984412;28;20046;-78
2023/07/13 08:10:02;;;;;;;1.00;0.80;;;;;;;;;;4989542;28;20037;-78
2023/07/13 08:12:28;;;;;;;3.65;0.88;;;;;;;;;;4990616;28;20018;-78
2023/07/13 08:14:53;;;;;;;1.35;0.80;;;;;;;;;;4989235;28;20022;-78
2023/07/13 08:17:20;;;;;;;0.63;0.60;;;;;;;;;;4990651;28;20034;-78
2023/07/13 08:19:45;;;;;;;1.35;0.90;;;;;;;;;;4991193;28;20026;-78
2023/07/13 08:22:11;;;;;;;2.70;0.93;;;;;;;;;;4990065;28;20022;-78
2023/07/13 08:24:36;;;;;;;1.60;0.80;;;;;;;;;;4989645;28;20108;-78
2023/07/13 08:27:01;;;;;;;2.55;0.70;;;;;;;;;;4990157;28;20092;-77
2023/07/13 08:29:27;;;;;;;1.83;0.75;;;;;;;;;;4991456;28;20028;-77
2023/07/13 08:31:52;;;;;;;2.38;0.75;;;;;;;;;;4990564;28;20103;-78
2023/07/13 08:34:17;;;;;;;2.20;0.70;;;;;;;;;;4990654;28;20026;-78
2023/07/13 08:36:43;;;;;;;1.83;0.70;;;;;;;;;;4984889;28;20037;-78
2023/07/13 08:39:08;;;;;;;0.77;0.75;;;;;;;;;;4989814;28;20121;-77
2023/07/13 08:41:35;;;;;;;1.27;0.68;;;;;;;;;;4989808;28;20022;-78
2023/07/13 08:44:03;;;;;;;1.45;0.60;;;;;;;;;;4991092;28;20330;-77
2023/07/13 08:46:38;;;;;;;1.83;0.70;;;;;;;;;;4990816;28;20014;-77
2023/07/13 08:49:22;;;;;;;1.35;0.70;;;;;;;;;;4988213;28;20053;-78
2023/07/13 08:51:59;;;;;;;2.45;0.75;;;;;;;;;;4987915;28;20030;-78
2023/07/13 08:54:57;;;;;;;0.40;0.40;;;;;;;;;;4984128;28;20487;-78
2023/07/13 08:57:31;;;;;;;0.93;0.50;;;;;;;;;;4977934;28;20057;-77
2023/07/13 08:59:56;;;;;;;1.27;0.60;;;;;;;;;;4988793;28;20533;-78
2023/07/13 09:02:30;;;;;;;1.20;0.70;;;;;;;;;;4990320;28;20105;-78
2023/07/13 09:05:03;;;;;;;1.70;0.77;;;;;;;;;;4990890;28;20024;-78
2023/07/13 09:08:32;;;;;;;0.63;0.60;;;;;;;;;;4985940;28;20026;-78
2023/07/13 09:11:04;;;;;;;1.45;0.80;;;;;;;;;;4952427;28;20501;-79
2023/07/13 09:13:42;;;;;;;1.15;0.65;;;;;;;;;;4981283;28;20034;-76
2023/07/13 09:16:10;;;;;;;0.88;0.65;;;;;;;;;;4987609;28;20549;-78
2023/07/13 09:18:43;;;;;;;2.42;0.70;;;;;;;;;;4990456;28;20105;-77
2023/07/13 09:21:16;;;;;;;0.57;0.50;;;;;;;;;;4989238;28;20023;-78
2023/07/13 09:23:43;;;;;;;3.42;0.70;;;;;;;;;;4985904;28;20033;-78
2023/07/13 09:26:17;;;;;;;1.42;0.90;;;;;;;;;;4984781;28;20022;-78
2023/07/13 09:28:46;;;;;;;0.90;0.65;;;;;;;;;;4988214;28;20034;-78
2023/07/13 09:31:21;;;;;;;1.77;0.77;;;;;;;;;;4987149;28;20554;-78
2023/07/13 09:33:48;;;;;;;2.30;0.90;;;;;;;;;;4986847;28;20038;-77
2023/07/13 09:36:20;;;;;;;0.63;0.40;;;;;;;;;;4985379;28;20029;-78
2023/07/13 09:38:46;;;;;;;0.85;0.45;;;;;;;;;;4989016;28;20050;-78
2023/07/13 09:41:50;;;;;;;1.63;0.60;;;;;;;;;;4988593;28;20019;-78
2023/07/13 09:44:17;;;;;;;3.00;0.98;;;;;;;;;;4990465;28;20145;-78
2023/07/13 09:46:54;;;;;;;2.03;0.77;;;;;;;;;;5009515;23;20048;-77
2023/07/13 09:49:26;;;;;;;1.65;0.95;;;;;;;;;;4994894;28;20398;-77
2023/07/13 09:52:03;;;;;;;1.23;0.60;;;;;;;;;;4998464;28;20026;-75
2023/07/13 09:54:29;;;;;;;1.08;0.45;;;;;;;;;;4997667;28;20026;-75
2023/07/13 09:56:59;;;;;;;1.08;0.50;;;;;;;;;;4992913;28;20029;-76
2023/07/13 09:59:30;;;;;;;1.92;0.60;;;;;;;;;;4995588;28;20033;-77
2023/07/13 10:01:55;;;;;;;1.20;0.55;;;;;;;;;;4998410;28;20397;-77
2023/07/13 10:04:34;;;;;;;2.65;0.80;;;;;;;;;;4992061;28;20026;-77
2023/07/13 10:07:08;;;;;;;1.52;0.60;;;;;;;;;;4997069;28;20069;-77
2023/07/13 10:09:34;;;;;;;1.70;0.50;;;;;;;;;;4997275;28;20548;-77
2023/07/13 10:11:59;;;;;;;1.17;0.50;;;;;;;;;;4998595;28;20022;-76
2023/07/13 10:14:26;;;;;;;1.05;0.75;;;;;;;;;;4997686;28;20478;-76
2023/07/13 10:17:04;;;;;;;2.22;0.60;;;;;;;;;;5002014;28;20026;-75
2023/07/13 10:19:32;;;;;;;1.33;0.60;;;;;;;;;;4997156;28;20018;-75
2023/07/13 10:22:25;;;;;;;2.33;0.95;;;;;;;;;;4995271;28;20027;-76
2023/07/13 10:24:51;;;;;;;3.28;0.60;;;;;;;;;;4994995;28;20030;-76
2023/07/13 10:27:35;;;;;;;2.88;1.02;;;;;;;;;;4996860;28;20101;-76
2023/07/13 10:30:03;;;;;;;2.05;0.80;;;;;;;;;;4998307;28;20026;-76
2023/07/13 10:32:29;;;;;;;2.65;0.90;;;;;;;;;;4998168;28;20022;-76
2023/07/13 10:35:01;;;;;;;0.70;0.43;;;;;;;;;;4999846;28;20022;-77
2023/07/13 10:37:30;;;;;;;1.90;1.00;;;;;;;;;;4997200;28;20042;-76
2023/07/13 10:39:57;;;;;;;0.63;0.40;;;;;;;;;;4992875;28;20026;-76
2023/07/13 10:42:33;;;;;;;0.98;0.70;;;;;;;;;;4995243;28;20022;-76
2023/07/13 10:44:58;;;;;;;1.67;0.88;;;;;;;;;;4982550;28;20049;-76
2023/07/13 10:47:26;;;;;;;0.98;0.55;;;;;;;;;;4996471;28;20661;-77
2023/07/13 10:49:57;;;;;;;1.35;0.75;;;;;;;;;;4994769;28;20118;-76
2023/07/13 10:52:46;;;;;;;1.05;0.50;;;;;;;;;;4995486;28;20373;-76
2023/07/13 10:55:31;;;;;;;1.52;0.70;;;;;;;;;;4996997;28;20460;-76
2023/07/13 10:58:00;;;;;;;5.00;0.90;;;;;;;;;;4995635;28;20068;-77
2023/07/13 11:00:26;;;;;;;3.90;0.80;;;;;;;;;;5001300;28;20029;-77
2023/07/13 11:03:02;;;;;;;0.93;0.60;;;;;;;;;;4999388;28;20025;-77
2023/07/13 11:05:31;;;;;;;2.17;0.80;;;;;;;;;;5003833;28;20628;-76
2023/07/13 11:08:23;;;;;;;0.85;0.52;;;;;;;;;;5005514;28;20034;-77
2023/07/13 11:10:54;;;;;;;2.10;0.80;;;;;;;;;;4999769;28;20109;-76
2023/07/13 11:13:57;;;;;;;1.10;0.50;;;;;;;;;;5003126;28;20453;-76
2023/07/13 11:16:22;;;;;;;1.52;0.80;;;;;;;;;;5000093;28;20439;-77
2023/07/13 11:19:17;;;;;;;2.05;0.68;;;;;;;;;;5000874;28;20054;-76
2023/07/13 11:22:11;;;;;;;2.40;0.80;;;;;;;;;;4998070;28;20409;-76
2023/07/13 11:24:58;;;;;;;2.05;0.80;;;;;;;;;;5003299;28;20105;-77
2023/07/13 11:27:45;;;;;;;2.67;0.90;;;;;;;;;;5003915;28;20084;-76
2023/07/13 11:30:29;;;;;;;1.20;0.65;;;;;;;;;;5008846;28;20502;-76
2023/07/13 11:33:07;;;;;;;1.20;0.55;;;;;;;;;;5005627;28;20101;-76
2023/07/13 11:35:38;;;;;;;1.70;0.55;;;;;;;;;;5007411;28;20040;-76
2023/07/13 11:38:13;;;;;;;1.63;0.80;;;;;;;;;;5012000;28;20097;-76
2023/07/13 11:40:39;;;;;;;1.05;0.80;;;;;;;;;;4999908;28;20027;-76
2023/07/13 11:43:07;;;;;;;1.33;0.80;;;;;;;;;;5004784;28;20033;-75
2023/07/13 11:45:32;;;;;;;0.80;0.50;;;;;;;;;;5001824;28;20025;-76
2023/07/13 11:48:00;;;;;;;1.38;0.60;;;;;;;;;;4998431;28;20128;-75
2023/07/13 11:50:26;;;;;;;2.47;0.68;;;;;;;;;;5002232;28;20093;-76
2023/07/13 11:52:54;;;;;;;1.35;0.47;;;;;;;;;;5002571;28;20148;-75
2023/07/13 11:55:24;;;;;;;1.08;0.57;;;;;;;;;;5001396;28;21357;-75
2023/07/13 11:57:50;;;;;;;1.58;0.50;;;;;;;;;;5002419;28;20479;-76
2023/07/13 12:00:23;;;;;;;1.80;0.60;;;;;;;;;;5000373;28;20033;-76
2023/07/13 12:02:51;;;;;;;1.73;0.88;;;;;;;;;;4998651;28;20021;-75
2023/07/13 12:05:20;;;;;;;2.45;0.80;;;;;;;;;;5003207;28;20470;-75
2023/07/13 12:07:46;;;;;;;1.92;0.70;;;;;;;;;;5002035;28;20111;-75
2023/07/13 12:10:23;;;;;;;1.80;0.80;;;;;;;;;;4991892;28;20022;-75
2023/07/13 12:12:58;;;;;;;2.58;0.80;;;;;;;;;;4996501;28;20731;-75
2023/07/13 12:15:39;;;;;;;1.42;0.70;;;;;;;;;;4997820;28;20039;-76
2023/07/13 12:18:23;;;;;;;1.13;0.70;;;;;;;;;;5003893;28;20022;-76
2023/07/13 12:20:50;;;;;;;1.95;0.80;;;;;;;;;;4995606;28;20022;-75
2023/07/13 12:23:32;;;;;;;1.65;0.68;;;;;;;;;;5002040;28;20065;-75
2023/07/13 12:26:01;;;;;;;1.08;0.60;;;;;;;;;;5004794;28;20084;-76
2023/07/13 12:28:36;;;;;;;0.73;0.43;;;;;;;;;;4998493;28;20076;-76
2023/07/13 12:31:06;;;;;;;1.05;0.50;;;;;;;;;;4996421;28;20022;-75
2023/07/13 12:33:33;;;;;;;1.67;0.70;;;;;;;;;;4996463;28;20099;-75
2023/07/13 12:36:04;;;;;;;0.93;0.60;;;;;;;;;;5002263;28;20674;-75
2023/07/13 12:38:30;;;;;;;1.25;0.50;;;;;;;;;;5001709;28;20111;-76
2023/07/13 12:40:57;;;;;;;1.75;0.52;;;;;;;;;;4995349;28;20261;-76
2023/07/13 12:43:23;;;;;;;0.93;0.60;;;;;;;;;;4995106;28;20022;-76
2023/07/13 12:45:58;;;;;;;1.25;0.60;;;;;;;;;;4997871;28;20076;-75
2023/07/13 12:48:24;;;;;;;1.42;0.70;;;;;;;;;;4997289;28;20022;-75
2023/07/13 12:50:50;;;;;;;2.22;0.70;;;;;;;;;;5004093;28;20556;-75
2023/07/13 12:53:28;;;;;;;2.78;0.90;;;;;;;;;;4999243;28;20030;-75
2023/07/13 12:55:59;;;;;;;1.13;0.70;;;;;;;;;;4997945;28;20390;-75
2023/07/13 12:58:25;;;;;;;1.65;0.60;;;;;;;;;;5000066;28;20221;-76
2023/07/13 13:00:53;;;;;;;1.73;0.60;;;;;;;;;;4997410;28;20116;-75
2023/07/13 13:03:25;;;;;;;1.58;0.65;;;;;;;;;;4998029;28;20038;-76
2023/07/13 13:06:06;;;;;;;2.05;0.68;;;;;;;;;;5008129;28;20022;-75
2023/07/13 13:08:36;;;;;;;0.73;0.50;;;;;;;;;;5005313;28;20027;-76
2023/07/13 13:11:02;;;;;;;0.85;0.80;;;;;;;;;;4999144;28;20486;-76
2023/07/13 13:13:28;;;;;;;1.05;0.75;;;;;;;;;;4998457;28;20114;-75
2023/07/13 13:15:54;;;;;;;1.02;0.50;;;;;;;;;;4995743;28;20030;-76
2023/07/13 13:18:22;;;;;;;1.08;0.80;;;;;;;;;;4998173;28;20543;-76
2023/07/13 13:20:49;;;;;;;1.95;0.55;;;;;;;;;;4998751;28;20102;-75
2023/07/13 13:23:17;;;;;;;2.03;0.80;;;;;;;;;;4991949;28;20054;-75
2023/07/13 13:25:45;;;;;;;0.88;0.50;;;;;;;;;;4994308;28;20677;-75
2023/07/13 13:28:17;;;;;;;1.45;0.85;;;;;;;;;;4995775;28;20033;-76
2023/07/13 13:30:45;;;;;;;3.03;0.70;;;;;;;;;;4997513;28;20026;-75
2023/07/13 13:33:12;;;;;;;2.25;0.82;;;;;;;;;;4998728;28;20104;-75
2023/07/13 13:35:38;;;;;;;1.38;0.60;;;;;;;;;;5001387;28;20482;-75
2023/07/13 13:38:25;;;;;;;1.95;0.85;;;;;;;;;;4992573;28;20121;-76
2023/07/13 13:40:51;;;;;;;2.13;0.70;;;;;;;;;;5003060;28;20085;-76
2023/07/13 13:43:27;;;;;;;1.15;0.60;;;;;;;;;;5004467;28;20113;-75
2023/07/13 13:45:59;;;;;;;1.80;0.63;;;;;;;;;;5004365;28;20092;-76
2023/07/13 13:48:33;;;;;;;0.77;0.60;;;;;;;;;;5003760;28;20033;-75
2023/07/13 13:50:59;;;;;;;1.25;0.70;;;;;;;;;;5007315;28;20104;-75
2023/07/13 13:53:25;;;;;;;1.20;0.63;;;;;;;;;;5003078;28;20030;-75
2023/07/13 13:55:52;;;;;;;1.15;0.70;;;;;;;;;;5000298;28;20046;-76
2023/07/13 13:58:18;;;;;;;2.10;0.80;;;;;;;;;;5003405;28;20105;-75
2023/07/13 14:00:46;;;;;;;0.93;0.70;;;;;;;;;;5008090;28;20128;-75
2023/07/13 14:03:16;;;;;;;1.83;0.85;;;;;;;;;;4996286;28;20026;-76
2023/07/13 14:05:43;;;;;;;;;;;;;;;;;;4997609;28;20028;-76
2023/07/13 14:08:14;;;;;;;0.55;0.50;;;;;;;;;;4993113;28;19913;-75
2023/07/13 14:10:40;;;;;;;2.55;0.77;;;;;;;;;;4996164;28;20030;-76
2023/07/13 14:13:17;;;;;;;1.63;0.77;;;;;;;;;;4999607;28;20021;-75
2023/07/13 14:15:42;;;;;;;1.42;0.70;;;;;;;;;;5004203;28;20482;-75
2023/07/13 14:18:08;;;;;;;1.40;0.73;;;;;;;;;;5009243;28;20032;-75
2023/07/13 14:20:34;;;;;;;0.63;0.50;;;;;;;;;;5001615;28;20106;-75
2023/07/13 14:22:59;;;;;;;1.38;0.82;;;;;;;;;;4994929;28;20018;-75
2023/07/13 14:25:25;;;;;;;0.73;0.73;;;;;;;;;;4998600;28;20057;-75
2023/07/13 14:27:57;;;;;;;1.27;0.73;;;;;;;;;;5002706;28;20726;-75
2023/07/13 14:30:22;;;;;;;1.50;0.70;;;;;;;;;;4996405;28;20064;-75
2023/07/13 14:32:49;;;;;;;0.70;0.70;;;;;;;;;;4993719;28;20447;-75
2023/07/13 14:35:15;;;;;;;1.30;0.80;;;;;;;;;;4997011;28;20494;-75
2023/07/13 14:37:42;;;;;;;1.55;0.65;;;;;;;;;;4999060;28;20030;-75
2023/07/13 14:40:21;;;;;;;2.88;0.90;;;;;;;;;;4995924;28;20030;-76
2023/07/13 14:42:47;;;;;;;3.28;0.63;;;;;;;;;;4996218;28;20092;-75
2023/07/13 14:45:15;;;;;;;1.02;0.50;;;;;;;;;;4995198;28;20056;-75
2023/07/13 14:47:42;;;;;;;0.60;0.60;;;;;;;;;;4997715;28;20499;-75
2023/07/13 14:50:20;;;;;;;1.10;0.85;;;;;;;;;;4994905;28;20030;-75